sensor_id;sensor_type;location;lat;lon;timestamp;pressure;altitude;pressure_sealevel;temperature;humidity
43071;BME280;36278;47.952;21.714;2023-06-14T00:00:43;100122.72;;;14.10;100.00
43071;BME280;36278;47.952;21.714;2023-06-14T00:03:10;100122.44;;;14.13;100.00
43071;BME280;36278;47.952;21.714;2023-06-14T00:05:37;100123.00;;;14.07;100.00
43071;BME280;36278;47.952;21.714;2023-06-14T00:08:06;100115.47;;;14.02;100.00
43071;BME280;36278;47.952;21.714;2023-06-14T00:10:33;100118.50;;;14.08;100.00
43071;BME280;36278;47.952;21.714;2023-06-14T00:13:00;100117.94;;;14.14;100.00
43071;BME280;36278;47.952;21.714;2023-06-14T00:15:26;100115.84;;;14.08;100.00
43071;BME280;36278;47.952;21.714;2023-06-14T00:17:51;100113.91;;;14.00;100.00
43071;BME280;36278;47.952;21.714;2023-06-14T00:20:17;100111.84;;;13.94;100.00
43071;BME280;36278;47.952;21.714;2023-06-14T00:22:42;100116.19;;;13.85;100.00
43071;BME280;36278;47.952;21.714;2023-06-14T00:25:07;100116.03;;;13.87;100.00
43071;BME280;36278;47.952;21.714;2023-06-14T00:27:33;100115.59;;;13.91;100.00
43071;BME280;36278;47.952;21.714;2023-06-14T00:29:58;100113.66;;;13.93;100.00
43071;BME280;36278;47.952;21.714;2023-06-14T00:32:23;100107.34;;;13.94;100.00
43071;BME280;36278;47.952;21.714;2023-06-14T00:34:51;100109.03;;;13.95;100.00
43071;BME280;36278;47.952;21.714;2023-06-14T00:37:16;100103.25;;;14.00;100.00
43071;BME280;36278;47.952;21.714;2023-06-14T00:39:41;100101.31;;;14.02;100.00
43071;BME280;36278;47.952;21.714;2023-06-14T00:42:06;100093.59;;;13.99;100.00
43071;BME280;36278;47.952;21.714;2023-06-14T00:44:32;100102.56;;;13.98;100.00
43071;BME280;36278;47.952;21.714;2023-06-14T00:46:57;100107.31;;;14.04;100.00
43071;BME280;36278;47.952;21.714;2023-06-14T00:49:22;100105.19;;;14.08;100.00
43071;BME280;36278;47.952;21.714;2023-06-14T00:51:48;100095.81;;;14.03;100.00
43071;BME280;36278;47.952;21.714;2023-06-14T00:54:14;100096.38;;;14.07;100.00
43071;BME280;36278;47.952;21.714;2023-06-14T00:56:39;100097.19;;;14.08;100.00
43071;BME280;36278;47.952;21.714;2023-06-14T00:59:05;100097.19;;;14.08;100.00
43071;BME280;36278;47.952;21.714;2023-06-14T01:01:31;100094.41;;;14.09;100.00
43071;BME280;36278;47.952;21.714;2023-06-14T01:03:59;100097.78;;;14.11;100.00
43071;BME280;36278;47.952;21.714;2023-06-14T01:09:03;100091.59;;;14.11;100.00
43071;BME280;36278;47.952;21.714;2023-06-14T01:11:32;100096.63;;;14.14;100.00
43071;BME280;36278;47.952;21.714;2023-06-14T01:14:01;100089.34;;;14.16;100.00
43071;BME280;36278;47.952;21.714;2023-06-14T01:16:28;100090.88;;;14.18;100.00
43071;BME280;36278;47.952;21.714;2023-06-14T01:18:54;100097.22;;;14.17;100.00
43071;BME280;36278;47.952;21.714;2023-06-14T01:21:23;100097.47;;;14.14;100.00
43071;BME280;36278;47.952;21.714;2023-06-14T01:23:49;100089.34;;;14.16;100.00
43071;BME280;36278;47.952;21.714;2023-06-14T01:26:21;100085.41;;;14.20;100.00
43071;BME280;36278;47.952;21.714;2023-06-14T01:28:46;100092.72;;;14.18;100.00
43071;BME280;36278;47.952;21.714;2023-06-14T01:31:15;100094.25;;;14.20;100.00
43071;BME280;36278;47.952;21.714;2023-06-14T01:33:41;100096.34;;;14.26;100.00
43071;BME280;36278;47.952;21.714;2023-06-14T01:36:07;100096.88;;;14.30;100.00
43071;BME280;36278;47.952;21.714;2023-06-14T01:38:33;100091.69;;;14.28;100.00
43071;BME280;36278;47.952;21.714;2023-06-14T01:40:58;100100.69;;;14.27;100.00
43071;BME280;36278;47.952;21.714;2023-06-14T01:43:25;100098.44;;;14.23;100.00
43071;BME280;36278;47.952;21.714;2023-06-14T01:45:51;100103.06;;;14.21;100.00
43071;BME280;36278;47.952;21.714;2023-06-14T01:48:17;100102.81;;;14.14;100.00
43071;BME280;36278;47.952;21.714;2023-06-14T01:50:43;100102.38;;;14.19;100.00
43071;BME280;36278;47.952;21.714;2023-06-14T01:53:08;100100.25;;;14.22;100.00
43071;BME280;36278;47.952;21.714;2023-06-14T01:55:34;100110.53;;;14.17;100.00
43071;BME280;36278;47.952;21.714;2023-06-14T01:58:02;100117.38;;;14.20;100.00
43071;BME280;36278;47.952;21.714;2023-06-14T02:00:28;100114.72;;;14.20;100.00
43071;BME280;36278;47.952;21.714;2023-06-14T02:02:53;100111.78;;;14.13;100.00
43071;BME280;36278;47.952;21.714;2023-06-14T02:05:18;100115.13;;;14.15;100.00
43071;BME280;36278;47.952;21.714;2023-06-14T02:07:45;100118.06;;;14.22;100.00
43071;BME280;36278;47.952;21.714;2023-06-14T02:10:11;100120.03;;;14.20;100.00
43071;BME280;36278;47.952;21.714;2023-06-14T02:12:36;100124.13;;;14.14;100.00
43071;BME280;36278;47.952;21.714;2023-06-14T02:15:02;100118.94;;;14.13;100.00
43071;BME280;36278;47.952;21.714;2023-06-14T02:17:29;100122.97;;;14.17;100.00
43071;BME280;36278;47.952;21.714;2023-06-14T02:19:54;100127.19;;;14.19;100.00
43071;BME280;36278;47.952;21.714;2023-06-14T02:22:20;100130.00;;;14.18;100.00
43071;BME280;36278;47.952;21.714;2023-06-14T02:24:47;100126.06;;;14.22;100.00
43071;BME280;36278;47.952;21.714;2023-06-14T02:27:12;100127.47;;;14.26;100.00
43071;BME280;36278;47.952;21.714;2023-06-14T02:29:37;100123.66;;;14.28;100.00
43071;BME280;36278;47.952;21.714;2023-06-14T02:32:04;100127.44;;;14.36;100.00
43071;BME280;36278;47.952;21.714;2023-06-14T02:34:29;100136.41;;;14.35;100.00
43071;BME280;36278;47.952;21.714;2023-06-14T02:36:54;100129.94;;;14.37;100.00
43071;BME280;36278;47.952;21.714;2023-06-14T02:39:20;100129.38;;;14.43;100.00
43071;BME280;36278;47.952;21.714;2023-06-14T02:41:46;100125.03;;;14.32;100.00
43071;BME280;36278;47.952;21.714;2023-06-14T02:44:12;100132.41;;;14.11;100.00
43071;BME280;36278;47.952;21.714;2023-06-14T02:46:38;100130.16;;;14.07;100.00
43071;BME280;36278;47.952;21.714;2023-06-14T02:49:03;100130.56;;;14.12;100.00
43071;BME280;36278;47.952;21.714;2023-06-14T02:51:29;100126.38;;;14.09;100.00
43071;BME280;36278;47.952;21.714;2023-06-14T02:53:54;100126.09;;;14.12;100.00
43071;BME280;36278;47.952;21.714;2023-06-14T02:56:20;100123.28;;;14.14;100.00
43071;BME280;36278;47.952;21.714;2023-06-14T02:58:47;100126.50;;;14.17;100.00
43071;BME280;36278;47.952;21.714;2023-06-14T03:01:13;100127.22;;;14.10;100.00
43071;BME280;36278;47.952;21.714;2023-06-14T03:03:39;100123.44;;;14.12;100.00
43071;BME280;36278;47.952;21.714;2023-06-14T03:06:04;100130.97;;;14.17;100.00
43071;BME280;36278;47.952;21.714;2023-06-14T03:08:30;100125.91;;;14.23;100.00
43071;BME280;36278;47.952;21.714;2023-06-14T03:10:56;100131.38;;;14.22;100.00
43071;BME280;36278;47.952;21.714;2023-06-14T03:13:22;100137.00;;;14.28;100.00
43071;BME280;36278;47.952;21.714;2023-06-14T03:15:48;100131.94;;;14.35;100.00
43071;BME280;36278;47.952;21.714;2023-06-14T03:18:16;100144.53;;;14.43;100.00
43071;BME280;36278;47.952;21.714;2023-06-14T03:20:41;100140.75;;;14.45;100.00
43071;BME280;36278;47.952;21.714;2023-06-14T03:23:08;100143.13;;;14.48;100.00
43071;BME280;36278;47.952;21.714;2023-06-14T03:25:33;100139.19;;;14.52;100.00
43071;BME280;36278;47.952;21.714;2023-06-14T03:28:01;100141.41;;;14.57;100.00
43071;BME280;36278;47.952;21.714;2023-06-14T03:30:26;100137.22;;;14.54;100.00
43071;BME280;36278;47.952;21.714;2023-06-14T03:32:52;100139.03;;;14.54;100.00
43071;BME280;36278;47.952;21.714;2023-06-14T03:35:18;100141.41;;;14.57;100.00
43071;BME280;36278;47.952;21.714;2023-06-14T03:37:44;100147.56;;;14.57;100.00
43071;BME280;36278;47.952;21.714;2023-06-14T03:40:10;100146.63;;;14.58;100.00
43071;BME280;36278;47.952;21.714;2023-06-14T03:42:35;100143.69;;;14.52;100.00
43071;BME280;36278;47.952;21.714;2023-06-14T03:45:00;100149.03;;;14.52;100.00
43071;BME280;36278;47.952;21.714;2023-06-14T03:47:26;100147.09;;;14.15;100.00
43071;BME280;36278;47.952;21.714;2023-06-14T03:49:52;100145.03;;;13.99;100.00
43071;BME280;36278;47.952;21.714;2023-06-14T03:52:17;100147.16;;;13.86;100.00
43071;BME280;36278;47.952;21.714;2023-06-14T03:54:42;100153.03;;;13.80;100.00
43071;BME280;36278;47.952;21.714;2023-06-14T03:57:09;100149.66;;;13.88;100.00
43071;BME280;36278;47.952;21.714;2023-06-14T03:59:35;100150.94;;;13.93;100.00
43071;BME280;36278;47.952;21.714;2023-06-14T04:02:00;100147.53;;;14.11;100.00
43071;BME280;36278;47.952;21.714;2023-06-14T04:04:26;100146.53;;;14.21;100.00
43071;BME280;36278;47.952;21.714;2023-06-14T04:06:54;100146.50;;;14.31;100.00
43071;BME280;36278;47.952;21.714;2023-06-14T04:09:19;100150.44;;;14.37;100.00
43071;BME280;36278;47.952;21.714;2023-06-14T04:11:44;100151.03;;;14.21;100.00
43071;BME280;36278;47.952;21.714;2023-06-14T04:14:10;100141.91;;;14.14;100.00
43071;BME280;36278;47.952;21.714;2023-06-14T04:16:35;100158.50;;;13.88;100.00
43071;BME280;36278;47.952;21.714;2023-06-14T04:19:00;100164.97;;;13.86;100.00
43071;BME280;36278;47.952;21.714;2023-06-14T04:21:26;100157.81;;;13.86;100.00
43071;BME280;36278;47.952;21.714;2023-06-14T04:23:53;100164.66;;;13.89;100.00
43071;BME280;36278;47.952;21.714;2023-06-14T04:26:19;100163.25;;;14.04;100.00
43071;BME280;36278;47.952;21.714;2023-06-14T04:28:46;100162.25;;;14.15;100.00
43071;BME280;36278;47.952;21.714;2023-06-14T04:31:12;100164.63;;;14.27;100.00
43071;BME280;36278;47.952;21.714;2023-06-14T04:33:37;100148.91;;;14.24;100.00
43071;BME280;36278;47.952;21.714;2023-06-14T04:36:10;100163.31;;;14.41;100.00
43071;BME280;36278;47.952;21.714;2023-06-14T04:38:37;100158.41;;;14.46;100.00
43071;BME280;36278;47.952;21.714;2023-06-14T04:41:02;100166.13;;;14.49;100.00
43071;BME280;36278;47.952;21.714;2023-06-14T04:43:27;100166.53;;;14.54;100.00
43071;BME280;36278;47.952;21.714;2023-06-14T04:45:53;100166.53;;;14.54;100.00
43071;BME280;36278;47.952;21.714;2023-06-14T04:48:21;100163.44;;;14.59;100.00
43071;BME280;36278;47.952;21.714;2023-06-14T04:50:46;100163.56;;;14.67;100.00
43071;BME280;36278;47.952;21.714;2023-06-14T04:53:11;100166.91;;;14.69;100.00
43071;BME280;36278;47.952;21.714;2023-06-14T04:55:37;100164.94;;;14.71;100.00
43071;BME280;36278;47.952;21.714;2023-06-14T04:58:03;100172.72;;;14.55;100.00
43071;BME280;36278;47.952;21.714;2023-06-14T05:00:28;100158.91;;;14.69;100.00
43071;BME280;36278;47.952;21.714;2023-06-14T05:02:55;100168.94;;;14.85;100.00
43071;BME280;36278;47.952;21.714;2023-06-14T05:05:22;100168.00;;;15.04;100.00
43071;BME280;36278;47.952;21.714;2023-06-14T05:07:47;100169.19;;;15.19;100.00
43071;BME280;36278;47.952;21.714;2023-06-14T05:10:12;100172.13;;;15.26;100.00
43071;BME280;36278;47.952;21.714;2023-06-14T05:12:38;100168.53;;;15.35;100.00
43071;BME280;36278;47.952;21.714;2023-06-14T05:15:03;100171.59;;;15.40;100.00
43071;BME280;36278;47.952;21.714;2023-06-14T05:17:28;100179.38;;;15.51;100.00
43071;BME280;36278;47.952;21.714;2023-06-14T05:19:54;100181.31;;;15.59;100.00
43071;BME280;36278;47.952;21.714;2023-06-14T05:22:20;100178.78;;;15.57;100.00
43071;BME280;36278;47.952;21.714;2023-06-14T05:24:46;100186.09;;;15.55;100.00
43071;BME280;36278;47.952;21.714;2023-06-14T05:27:13;100183.06;;;15.50;100.00
43071;BME280;36278;47.952;21.714;2023-06-14T05:29:38;100175.31;;;15.47;100.00
43071;BME280;36278;47.952;21.714;2023-06-14T05:32:04;100175.47;;;15.28;100.00
43071;BME280;36278;47.952;21.714;2023-06-14T05:34:29;100180.66;;;15.29;100.00
43071;BME280;36278;47.952;21.714;2023-06-14T05:36:54;100183.88;;;15.33;100.00
43071;BME280;36278;47.952;21.714;2023-06-14T05:39:20;100184.19;;;15.48;100.00
43071;BME280;36278;47.952;21.714;2023-06-14T05:41:45;100184.16;;;15.75;99.56
43071;BME280;36278;47.952;21.714;2023-06-14T05:44:11;100184.00;;;15.94;98.45
43071;BME280;36278;47.952;21.714;2023-06-14T05:46:36;100179.56;;;16.03;97.61
43071;BME280;36278;47.952;21.714;2023-06-14T05:49:02;100183.00;;;16.13;97.27
43071;BME280;36278;47.952;21.714;2023-06-14T05:51:27;100185.31;;;16.34;96.24
43071;BME280;36278;47.952;21.714;2023-06-14T05:53:52;100176.81;;;16.13;98.18
43071;BME280;36278;47.952;21.714;2023-06-14T05:56:18;100183.34;;;16.18;95.42
43071;BME280;36278;47.952;21.714;2023-06-14T05:58:44;100189.75;;;16.25;95.63
43071;BME280;36278;47.952;21.714;2023-06-14T06:01:09;100193.66;;;16.31;94.12
43071;BME280;36278;47.952;21.714;2023-06-14T06:03:35;100198.50;;;16.36;94.51
43071;BME280;36278;47.952;21.714;2023-06-14T06:06:01;100194.88;;;16.19;94.05
43071;BME280;36278;47.952;21.714;2023-06-14T06:08:27;100198.25;;;16.03;94.25
43071;BME280;36278;47.952;21.714;2023-06-14T06:10:53;100197.75;;;16.00;95.21
43071;BME280;36278;47.952;21.714;2023-06-14T06:13:18;100198.66;;;15.90;95.56
43071;BME280;36278;47.952;21.714;2023-06-14T06:15:44;100197.91;;;15.98;94.65
43071;BME280;36278;47.952;21.714;2023-06-14T06:18:09;100198.97;;;16.05;94.82
43071;BME280;36278;47.952;21.714;2023-06-14T06:20:35;100202.38;;;16.15;93.85
43071;BME280;36278;47.952;21.714;2023-06-14T06:23:01;100203.16;;;16.08;94.13
43071;BME280;36278;47.952;21.714;2023-06-14T06:25:27;100209.16;;;16.27;92.46
43071;BME280;36278;47.952;21.714;2023-06-14T06:27:52;100198.38;;;16.63;91.56
43071;BME280;36278;47.952;21.714;2023-06-14T06:30:19;100203.72;;;16.63;90.83
43071;BME280;36278;47.952;21.714;2023-06-14T06:32:44;100202.91;;;16.63;90.12
43071;BME280;36278;47.952;21.714;2023-06-14T06:35:11;100216.28;;;16.45;89.51
43071;BME280;36278;47.952;21.714;2023-06-14T06:37:36;100220.34;;;16.49;90.73
43071;BME280;36278;47.952;21.714;2023-06-14T06:40:02;100212.34;;;16.75;89.00
43071;BME280;36278;47.952;21.714;2023-06-14T06:42:31;100211.44;;;16.92;87.22
43071;BME280;36278;47.952;21.714;2023-06-14T06:44:56;100219.38;;;16.76;87.96
43071;BME280;36278;47.952;21.714;2023-06-14T06:47:22;100217.28;;;16.62;90.10
43071;BME280;36278;47.952;21.714;2023-06-14T06:49:47;100210.31;;;16.51;90.12
43071;BME280;36278;47.952;21.714;2023-06-14T06:52:13;100212.09;;;16.68;89.60
43071;BME280;36278;47.952;21.714;2023-06-14T06:54:39;100218.06;;;16.80;88.82
43071;BME280;36278;47.952;21.714;2023-06-14T06:57:04;100208.91;;;16.65;90.23
43071;BME280;36278;47.952;21.714;2023-06-14T06:59:31;100220.00;;;16.96;87.87
43071;BME280;36278;47.952;21.714;2023-06-14T07:01:56;100214.59;;;17.22;84.30
43071;BME280;36278;47.952;21.714;2023-06-14T07:04:22;100218.53;;;17.44;83.54
43071;BME280;36278;47.952;21.714;2023-06-14T07:06:48;100225.41;;;17.54;83.32
43071;BME280;36278;47.952;21.714;2023-06-14T07:09:13;100220.66;;;17.32;83.47
43071;BME280;36278;47.952;21.714;2023-06-14T07:11:40;100232.97;;;17.17;81.88
43071;BME280;36278;47.952;21.714;2023-06-14T07:14:06;100235.72;;;16.99;83.55
43071;BME280;36278;47.952;21.714;2023-06-14T07:16:31;100231.41;;;17.06;83.93
43071;BME280;36278;47.952;21.714;2023-06-14T07:18:57;100240.00;;;17.18;83.83
43071;BME280;36278;47.952;21.714;2023-06-14T07:21:22;100234.97;;;17.15;84.25
43071;BME280;36278;47.952;21.714;2023-06-14T07:23:48;100238.88;;;17.28;83.30
43071;BME280;36278;47.952;21.714;2023-06-14T07:26:13;100240.91;;;17.77;80.81
43071;BME280;36278;47.952;21.714;2023-06-14T07:28:39;100235.06;;;17.89;80.83
43071;BME280;36278;47.952;21.714;2023-06-14T07:31:04;100245.84;;;17.63;81.78
43071;BME280;36278;47.952;21.714;2023-06-14T07:33:29;100239.66;;;17.55;82.84
43071;BME280;36278;47.952;21.714;2023-06-14T07:35:55;100238.28;;;17.51;81.34
43071;BME280;36278;47.952;21.714;2023-06-14T07:38:20;100246.28;;;17.85;77.84
43071;BME280;36278;47.952;21.714;2023-06-14T07:40:46;100241.44;;;18.13;78.12
43071;BME280;36278;47.952;21.714;2023-06-14T07:43:11;100240.41;;;18.63;76.87
43071;BME280;36278;47.952;21.714;2023-06-14T07:45:37;100245.47;;;18.82;74.42
43071;BME280;36278;47.952;21.714;2023-06-14T07:48:02;100240.63;;;18.69;74.68
43071;BME280;36278;47.952;21.714;2023-06-14T07:50:28;100243.13;;;18.22;75.17
43071;BME280;36278;47.952;21.714;2023-06-14T07:52:54;100242.94;;;17.99;77.60
43071;BME280;36278;47.952;21.714;2023-06-14T07:55:19;100245.13;;;17.96;77.07
43071;BME280;36278;47.952;21.714;2023-06-14T07:57:45;100247.13;;;17.93;76.25
43071;BME280;36278;47.952;21.714;2023-06-14T08:00:11;100244.72;;;17.74;76.49
43071;BME280;36278;47.952;21.714;2023-06-14T08:02:40;100250.25;;;17.73;77.15
43071;BME280;36278;47.952;21.714;2023-06-14T08:05:06;100247.16;;;18.18;75.58
43071;BME280;36278;47.952;21.714;2023-06-14T08:07:31;100243.66;;;18.66;72.08
43071;BME280;36278;47.952;21.714;2023-06-14T08:09:57;100244.78;;;18.64;70.60
43071;BME280;36278;47.952;21.714;2023-06-14T08:12:22;100240.94;;;18.58;72.08
43071;BME280;36278;47.952;21.714;2023-06-14T08:14:47;100246.81;;;18.78;69.32
43071;BME280;36278;47.952;21.714;2023-06-14T08:17:13;100239.44;;;18.47;70.99
43071;BME280;36278;47.952;21.714;2023-06-14T08:19:38;100246.47;;;18.24;72.37
43071;BME280;36278;47.952;21.714;2023-06-14T08:22:04;100241.81;;;18.26;73.40
43071;BME280;36278;47.952;21.714;2023-06-14T08:24:29;100246.31;;;18.58;72.02
43071;BME280;36278;47.952;21.714;2023-06-14T08:26:54;100249.00;;;18.42;72.18
43071;BME280;36278;47.952;21.714;2023-06-14T08:29:21;100251.50;;;18.52;69.93
43071;BME280;36278;47.952;21.714;2023-06-14T08:31:47;100247.47;;;18.39;69.69
43071;BME280;36278;47.952;21.714;2023-06-14T08:34:12;100249.50;;;18.37;73.18
43071;BME280;36278;47.952;21.714;2023-06-14T08:36:37;100265.75;;;18.28;73.77
43071;BME280;36278;47.952;21.714;2023-06-14T08:39:03;100260.88;;;18.15;75.45
43071;BME280;36278;47.952;21.714;2023-06-14T08:41:28;100259.41;;;18.69;72.67
43071;BME280;36278;47.952;21.714;2023-06-14T08:43:55;100268.41;;;19.01;71.24
43071;BME280;36278;47.952;21.714;2023-06-14T08:46:20;100271.59;;;18.88;71.01
43071;BME280;36278;47.952;21.714;2023-06-14T08:48:50;100269.75;;;18.89;72.56
43071;BME280;36278;47.952;21.714;2023-06-14T08:51:20;100265.94;;;19.39;72.15
43071;BME280;36278;47.952;21.714;2023-06-14T08:53:55;100262.16;;;19.64;70.21
43071;BME280;36278;47.952;21.714;2023-06-14T08:56:26;100261.00;;;19.58;68.34
43071;BME280;36278;47.952;21.714;2023-06-14T08:58:53;100266.16;;;19.13;69.20
43071;BME280;36278;47.952;21.714;2023-06-14T09:01:19;100264.56;;;19.43;68.53
43071;BME280;36278;47.952;21.714;2023-06-14T09:03:46;100259.38;;;19.80;66.29
43071;BME280;36278;47.952;21.714;2023-06-14T09:06:13;100266.75;;;19.78;65.61
43071;BME280;36278;47.952;21.714;2023-06-14T09:08:41;100268.28;;;19.33;64.44
43071;BME280;36278;47.952;21.714;2023-06-14T09:11:08;100269.63;;;19.77;62.91
43071;BME280;36278;47.952;21.714;2023-06-14T09:13:33;100267.25;;;20.28;62.52
43071;BME280;36278;47.952;21.714;2023-06-14T09:15:59;100260.41;;;20.48;60.94
43071;BME280;36278;47.952;21.714;2023-06-14T09:18:33;100249.75;;;20.55;61.97
43071;BME280;36278;47.952;21.714;2023-06-14T09:20:59;100266.94;;;20.54;63.40
43071;BME280;36278;47.952;21.714;2023-06-14T09:23:25;100268.22;;;20.35;61.84
43071;BME280;36278;47.952;21.714;2023-06-14T09:25:50;100263.78;;;20.65;61.50
43071;BME280;36278;47.952;21.714;2023-06-14T09:28:16;100266.19;;;20.37;61.63
43071;BME280;36278;47.952;21.714;2023-06-14T09:30:41;100261.81;;;20.59;61.40
43071;BME280;36278;47.952;21.714;2023-06-14T09:33:07;100264.00;;;20.93;60.10
43071;BME280;36278;47.952;21.714;2023-06-14T09:35:33;100263.16;;;20.78;59.73
43071;BME280;36278;47.952;21.714;2023-06-14T09:37:59;100255.66;;;21.03;58.20
43071;BME280;36278;47.952;21.714;2023-06-14T09:40:24;100263.09;;;21.45;57.42
43071;BME280;36278;47.952;21.714;2023-06-14T09:42:50;100272.41;;;21.27;58.85
43071;BME280;36278;47.952;21.714;2023-06-14T09:45:16;100264.31;;;21.13;59.59
43071;BME280;36278;47.952;21.714;2023-06-14T09:47:48;100268.19;;;21.25;59.78
43071;BME280;36278;47.952;21.714;2023-06-14T09:50:14;100271.50;;;20.83;60.51
43071;BME280;36278;47.952;21.714;2023-06-14T09:52:39;100270.72;;;20.59;62.02
43071;BME280;36278;47.952;21.714;2023-06-14T09:55:08;100260.13;;;21.10;58.51
43071;BME280;36278;47.952;21.714;2023-06-14T09:57:36;100266.41;;;21.62;58.00
43071;BME280;36278;47.952;21.714;2023-06-14T10:00:03;100263.13;;;21.30;57.67
43071;BME280;36278;47.952;21.714;2023-06-14T10:02:35;100259.88;;;20.67;58.12
43071;BME280;36278;47.952;21.714;2023-06-14T10:05:03;100269.06;;;20.58;59.13
43071;BME280;36278;47.952;21.714;2023-06-14T10:07:30;100274.53;;;20.42;59.85
43071;BME280;36278;47.952;21.714;2023-06-14T10:09:57;100272.28;;;20.31;58.82
43071;BME280;36278;47.952;21.714;2023-06-14T10:12:23;100265.94;;;20.69;58.37
43071;BME280;36278;47.952;21.714;2023-06-14T10:14:50;100263.13;;;21.30;57.72
43071;BME280;36278;47.952;21.714;2023-06-14T10:20:18;100268.25;;;20.73;59.43
43071;BME280;36278;47.952;21.714;2023-06-14T10:22:50;100258.13;;;20.75;59.48
43071;BME280;36278;47.952;21.714;2023-06-14T10:25:29;100256.56;;;21.24;59.10
43071;BME280;36278;47.952;21.714;2023-06-14T10:30:41;100258.31;;;21.76;58.36
43071;BME280;36278;47.952;21.714;2023-06-14T10:33:26;100256.91;;;22.17;55.57
43071;BME280;36278;47.952;21.714;2023-06-14T10:36:06;100256.50;;;22.20;55.20
43071;BME280;36278;47.952;21.714;2023-06-14T10:38:31;100265.00;;;21.66;54.49
43071;BME280;36278;47.952;21.714;2023-06-14T10:40:58;100252.25;;;21.74;55.97
43071;BME280;36278;47.952;21.714;2023-06-14T10:43:24;100244.03;;;22.19;56.22
43071;BME280;36278;47.952;21.714;2023-06-14T10:48:34;100246.44;;;21.92;57.34
43071;BME280;36278;47.952;21.714;2023-06-14T10:51:05;100242.06;;;21.55;57.00
43071;BME280;36278;47.952;21.714;2023-06-14T10:53:39;100247.13;;;21.29;56.09
43071;BME280;36278;47.952;21.714;2023-06-14T10:56:08;100243.50;;;21.51;55.10
43071;BME280;36278;47.952;21.714;2023-06-14T10:58:34;100236.50;;;21.93;54.21
43071;BME280;36278;47.952;21.714;2023-06-14T11:00:59;100237.00;;;22.03;53.41
43071;BME280;36278;47.952;21.714;2023-06-14T11:05:55;100219.69;;;22.61;53.63
43071;BME280;36278;47.952;21.714;2023-06-14T11:10:58;100223.97;;;23.12;51.06
43071;BME280;36278;47.952;21.714;2023-06-14T11:13:25;100223.63;;;23.28;51.54
43071;BME280;36278;47.952;21.714;2023-06-14T11:15:51;100222.97;;;23.19;52.31
43071;BME280;36278;47.952;21.714;2023-06-14T11:18:21;100223.63;;;22.59;54.30
43071;BME280;36278;47.952;21.714;2023-06-14T11:20:50;100225.28;;;22.10;53.85
43071;BME280;36278;47.952;21.714;2023-06-14T11:23:15;100224.03;;;21.92;54.63
43071;BME280;36278;47.952;21.714;2023-06-14T11:25:41;100230.13;;;21.79;54.61
43071;BME280;36278;47.952;21.714;2023-06-14T11:28:07;100223.91;;;22.21;52.72
43071;BME280;36278;47.952;21.714;2023-06-14T11:30:34;100215.16;;;22.97;51.44
43071;BME280;36278;47.952;21.714;2023-06-14T11:32:59;100209.63;;;23.59;50.73
43071;BME280;36278;47.952;21.714;2023-06-14T11:35:25;100209.09;;;23.84;48.33
43071;BME280;36278;47.952;21.714;2023-06-14T11:37:55;100210.63;;;24.32;47.06
43071;BME280;36278;47.952;21.714;2023-06-14T11:40:25;100212.91;;;24.49;46.95
43071;BME280;36278;47.952;21.714;2023-06-14T11:42:58;100204.44;;;25.16;45.38
43071;BME280;36278;47.952;21.714;2023-06-14T11:45:25;100206.09;;;25.76;44.27
43071;BME280;36278;47.952;21.714;2023-06-14T11:47:51;100202.06;;;25.85;44.65
43071;BME280;36278;47.952;21.714;2023-06-14T11:50:17;100205.06;;;25.77;43.95
43071;BME280;36278;47.952;21.714;2023-06-14T11:52:43;100202.19;;;25.96;44.34
43071;BME280;36278;47.952;21.714;2023-06-14T11:55:09;100197.88;;;26.45;42.88
43071;BME280;36278;47.952;21.714;2023-06-14T11:57:36;100200.97;;;26.92;42.03
43071;BME280;36278;47.952;21.714;2023-06-14T12:00:04;100201.38;;;26.21;41.78
43071;BME280;36278;47.952;21.714;2023-06-14T12:02:33;100196.81;;;25.52;43.16
43071;BME280;36278;47.952;21.714;2023-06-14T12:05:03;100197.00;;;25.05;44.28
43071;BME280;36278;47.952;21.714;2023-06-14T12:07:29;100195.16;;;24.79;45.00
43071;BME280;36278;47.952;21.714;2023-06-14T12:12:22;100198.50;;;23.89;46.27
43071;BME280;36278;47.952;21.714;2023-06-14T12:14:47;100199.13;;;23.97;46.31
43071;BME280;36278;47.952;21.714;2023-06-14T12:17:13;100194.31;;;23.93;46.19
43071;BME280;36278;47.952;21.714;2023-06-14T12:19:42;100198.50;;;24.02;46.23
43071;BME280;36278;47.952;21.714;2023-06-14T12:22:09;100201.16;;;23.62;46.98
43071;BME280;36278;47.952;21.714;2023-06-14T12:24:34;100194.28;;;23.18;47.10
43071;BME280;36278;47.952;21.714;2023-06-14T12:27:00;100196.16;;;23.18;47.07
43071;BME280;36278;47.952;21.714;2023-06-14T12:29:28;100192.88;;;22.88;46.74
43071;BME280;36278;47.952;21.714;2023-06-14T12:31:54;100196.31;;;22.75;47.88
43071;BME280;36278;47.952;21.714;2023-06-14T12:34:21;100195.69;;;22.80;47.76
43071;BME280;36278;47.952;21.714;2023-06-14T12:36:47;100196.47;;;23.02;47.65
43071;BME280;36278;47.952;21.714;2023-06-14T12:39:12;100198.44;;;23.21;47.94
43071;BME280;36278;47.952;21.714;2023-06-14T12:41:38;100193.03;;;23.21;46.14
43071;BME280;36278;47.952;21.714;2023-06-14T12:44:03;100188.72;;;23.33;45.78
43071;BME280;36278;47.952;21.714;2023-06-14T12:46:31;100185.09;;;23.61;45.80
43071;BME280;36278;47.952;21.714;2023-06-14T12:48:57;100179.09;;;23.72;45.53